createdAt,value
2022-10-17T00:04:27.908Z,8.1
2022-10-17T00:09:29.950Z,8.2
2022-10-17T00:14:31.891Z,7.8
2022-10-17T00:19:33.847Z,7.5
2022-10-17T00:24:35.836Z,8.1
2022-10-17T00:29:37.965Z,8.8
2022-10-17T00:34:39.947Z,8.7
2022-10-17T00:39:42.415Z,8.7
2022-10-17T00:44:44.304Z,8.7
2022-10-17T00:49:46.200Z,8.3
2022-10-17T00:54:48.298Z,7.7
2022-10-17T00:59:50.576Z,7.6
2022-10-17T01:04:52.781Z,7.4
2022-10-17T01:09:54.911Z,7.6
2022-10-17T01:14:56.819Z,7.6
2022-10-17T01:19:58.866Z,8
2022-10-17T01:25:01.086Z,8.1
2022-10-17T01:30:03.295Z,7.6
2022-10-17T01:35:05.291Z,7.6
2022-10-17T01:40:07.276Z,8.1
2022-10-17T01:45:09.407Z,7.9
2022-10-17T01:50:11.547Z,8
2022-10-17T01:55:13.542Z,7.5
2022-10-17T02:00:15.456Z,7.6
2022-10-17T02:05:17.355Z,7.7
2022-10-17T02:10:19.248Z,7.6
2022-10-17T02:15:21.187Z,7.5
2022-10-17T02:20:23.186Z,7.6
2022-10-17T02:25:25.217Z,7.6
2022-10-17T02:30:27.212Z,8
2022-10-17T02:35:29.532Z,7.9
2022-10-17T02:40:31.776Z,7.6
2022-10-17T02:45:33.974Z,7.8
2022-10-17T02:50:36.155Z,8.3
2022-10-17T02:55:38.109Z,7.9
2022-10-17T03:00:40.295Z,8.1
2022-10-17T03:05:42.610Z,7.7
2022-10-17T03:10:44.586Z,7.7
2022-10-17T03:15:46.891Z,7.8
2022-10-17T03:20:49.285Z,7.6
2022-10-17T03:25:51.469Z,7.7
2022-10-17T03:30:53.996Z,8.1
2022-10-17T03:35:56.169Z,8.4
2022-10-17T03:40:58.072Z,8.2
2022-10-17T03:46:00.625Z,8.3
2022-10-17T03:51:02.802Z,8.1
2022-10-17T03:56:04.748Z,8.4
2022-10-17T04:01:06.891Z,8.2
2022-10-17T04:06:09.263Z,8.2
2022-10-17T04:11:11.367Z,8.5
2022-10-17T04:16:13.284Z,8.3
2022-10-17T04:21:15.263Z,8.7
2022-10-17T04:26:17.160Z,8.5
2022-10-17T04:31:19.329Z,9
2022-10-17T04:36:21.466Z,14
2022-10-17T04:41:23.496Z,10.2
2022-10-17T04:46:25.691Z,10.3
2022-10-17T04:51:27.804Z,10.2
2022-10-17T04:56:29.789Z,10.3
2022-10-17T05:01:31.988Z,10.1
2022-10-17T05:06:34.122Z,9.6
2022-10-17T05:11:36.418Z,9.7
2022-10-17T05:16:38.703Z,9.8
2022-10-17T05:21:40.632Z,9.8
2022-10-17T05:26:43.018Z,9.7
2022-10-17T05:31:44.948Z,8.9
2022-10-17T05:36:47.021Z,8.4
2022-10-17T05:41:49.197Z,8.3
2022-10-17T05:46:51.261Z,9
2022-10-17T05:51:54.231Z,8.7
2022-10-17T05:56:56.336Z,8.6
2022-10-17T06:01:58.359Z,8.2
2022-10-17T06:07:00.365Z,7.6
2022-10-17T06:12:02.355Z,16.8
2022-10-17T06:17:02.881Z,7.4
2022-10-17T06:22:04.927Z,7.5
2022-10-17T06:27:12.758Z,7.1
2022-10-17T06:32:16.115Z,6.6
2022-10-17T06:37:18.279Z,6.7
2022-10-17T06:42:20.520Z,6.3
2022-10-17T06:47:29.120Z,6.1
2022-10-17T06:52:33.099Z,5.7
2022-10-17T06:57:35.935Z,5.3
2022-10-17T07:02:38.454Z,5
2022-10-17T07:07:45.638Z,8.2
2022-10-17T07:12:48.040Z,5.2
2022-10-17T07:17:50.237Z,5.4
2022-10-17T07:22:52.370Z,5.4
2022-10-17T07:27:54.369Z,5.1
2022-10-17T07:32:56.324Z,5.3
2022-10-17T07:37:58.725Z,5
2022-10-17T07:43:00.760Z,5.1
2022-10-17T07:48:02.772Z,4.7
2022-10-17T07:53:04.761Z,4.3
2022-10-17T07:58:06.889Z,4.5
2022-10-17T08:03:08.948Z,4.6
2022-10-17T08:08:10.885Z,4.6
2022-10-17T08:13:13.095Z,4.4
2022-10-17T08:18:15.652Z,4.2
2022-10-17T08:23:33.096Z,3.9
2022-10-17T08:28:28.375Z,4.4
2022-10-17T08:33:37.410Z,3.7
2022-10-17T08:38:44.945Z,3.4
2022-10-17T08:43:44.183Z,3.6
2022-10-17T08:48:55.645Z,3.4
2022-10-17T08:53:48.974Z,3.5
2022-10-17T08:58:58.073Z,3.4
2022-10-17T09:03:52.300Z,3.5
2022-10-17T09:08:55.204Z,3.4
2022-10-17T09:13:59.379Z,3.5
2022-10-17T09:19:06.526Z,3.6
2022-10-17T09:24:16.524Z,3.6
2022-10-17T09:29:10.287Z,3.6
2022-10-17T09:34:11.634Z,3.5
2022-10-17T09:39:16.892Z,3.7
2022-10-17T09:44:19.259Z,3.5
2022-10-17T09:49:23.559Z,3.7
2022-10-17T09:54:26.213Z,3.3
2022-10-17T09:59:28.784Z,3.5
2022-10-17T10:05:04.888Z,3.5
2022-10-17T10:09:41.360Z,3.7
2022-10-17T10:14:49.173Z,3.6
2022-10-17T10:19:59.319Z,3.9
2022-10-17T10:25:02.935Z,3.6
2022-10-17T10:30:12.239Z,3.4
2022-10-17T10:35:11.772Z,3.6
2022-10-17T10:40:14.993Z,3.4
2022-10-17T10:50:22.897Z,3.7
2022-10-17T10:55:26.517Z,3.4
2022-10-17T11:00:31.329Z,3.3
2022-10-17T11:05:35.483Z,3.1
2022-10-17T11:10:40.488Z,3.2
2022-10-17T11:15:44.290Z,3.2
2022-10-17T11:20:48.038Z,3.1
2022-10-17T11:25:53.277Z,2.8
2022-10-17T11:31:05.748Z,2.8
2022-10-17T11:36:05.689Z,2.9
2022-10-17T11:41:18.326Z,3.1
2022-10-17T11:46:14.172Z,3.1
2022-10-17T11:52:05.148Z,3
2022-10-17T11:56:17.646Z,3.1
2022-10-17T12:01:42.073Z,2.9
2022-10-17T12:06:38.968Z,2.8
2022-10-17T12:11:35.431Z,3.2
2022-10-17T12:16:39.700Z,2.7
2022-10-17T12:21:44.655Z,3.1
2022-10-17T12:26:46.957Z,3
2022-10-17T12:31:49.762Z,2.9
2022-10-17T12:36:52.038Z,2.9
2022-10-17T12:41:54.586Z,2.9
2022-10-17T12:46:57.134Z,2.9
2022-10-17T12:52:01.739Z,3.1
2022-10-17T12:57:04.643Z,2.9
2022-10-17T13:02:28.269Z,2.8
2022-10-17T13:07:14.092Z,3
2022-10-17T13:12:19.140Z,2.8
2022-10-17T13:17:24.049Z,2.8
2022-10-17T13:22:31.273Z,2.9
2022-10-17T13:27:36.894Z,3
2022-10-17T13:32:41.592Z,2.9
2022-10-17T13:37:54.395Z,2.9
2022-10-17T13:42:49.897Z,2.7
2022-10-17T13:47:55.876Z,2.8
2022-10-17T13:53:02.091Z,2.8
2022-10-17T13:58:07.424Z,2.7
2022-10-17T14:03:11.322Z,2.8
2022-10-17T14:08:25.352Z,2.9
2022-10-17T14:13:25.319Z,2.8
2022-10-17T14:18:26.182Z,2.7
2022-10-17T14:23:42.654Z,2.5
2022-10-17T14:28:32.563Z,2.8
2022-10-17T14:33:37.393Z,2.8
2022-10-17T14:43:51.428Z,2.7
2022-10-17T14:48:48.734Z,2.8
2022-10-17T14:53:52.453Z,2.8
2022-10-17T14:58:54.548Z,7.7
2022-10-17T15:03:56.449Z,3.1
2022-10-17T15:08:58.935Z,2.9
2022-10-17T15:14:01.189Z,3
2022-10-17T15:19:03.175Z,3.2
2022-10-17T15:24:05.289Z,3.3
2022-10-17T15:29:07.469Z,3.2
2022-10-17T15:34:09.737Z,3.2
2022-10-17T15:39:11.989Z,3.3
2022-10-17T15:44:14.362Z,3.4
2022-10-17T15:49:16.344Z,3.8
2022-10-17T15:54:18.549Z,4
2022-10-17T15:59:20.790Z,4
2022-10-17T16:04:22.738Z,4.1
2022-10-17T16:09:25.027Z,4.1
2022-10-17T16:14:27.142Z,3.8
2022-10-17T16:19:29.249Z,4.1
2022-10-17T16:24:31.216Z,5.6
2022-10-17T16:29:33.143Z,6.4
2022-10-17T16:34:35.051Z,7.4
2022-10-17T16:39:37.441Z,8
2022-10-17T16:44:39.832Z,8.1
2022-10-17T16:49:46.094Z,8
2022-10-17T16:54:48.451Z,8.5
2022-10-17T16:59:50.698Z,8.2
2022-10-17T17:04:52.708Z,8.5
2022-10-17T17:09:54.930Z,8.8
2022-10-17T17:14:57.106Z,8.2
2022-10-17T17:19:59.038Z,8
2022-10-17T17:25:01.279Z,8
2022-10-17T17:30:03.258Z,8.8
2022-10-17T17:35:05.373Z,9.7
2022-10-17T17:40:07.354Z,10
2022-10-17T17:45:09.473Z,8.9
2022-10-17T17:50:11.391Z,8.1
2022-10-17T17:55:13.866Z,8
2022-10-17T18:00:16.089Z,7
2022-10-17T18:05:18.047Z,7.8
2022-10-17T18:10:20.249Z,7.8
2022-10-17T18:15:22.167Z,8.4
2022-10-17T18:20:24.246Z,6.9
2022-10-17T18:25:26.662Z,6.5
2022-10-17T18:30:32.272Z,6.7
2022-10-17T18:35:36.557Z,10
2022-10-17T18:40:44.140Z,11.3
2022-10-17T18:45:42.398Z,11.3
2022-10-17T18:50:44.362Z,12.3
2022-10-17T18:55:47.416Z,12.6
2022-10-17T19:00:51.372Z,17.8
2022-10-17T19:05:55.671Z,17.8
2022-10-17T19:11:02.355Z,16.6
2022-10-17T19:16:04.299Z,16.1
2022-10-17T19:21:06.334Z,15.4
2022-10-17T19:26:08.438Z,12.8
2022-10-17T19:31:15.378Z,11.7
2022-10-17T19:36:17.021Z,12.9
2022-10-17T19:41:19.380Z,12.1
2022-10-17T19:46:21.666Z,10.9
2022-10-17T19:51:23.648Z,10.1
2022-10-17T19:56:25.991Z,10.5
2022-10-17T20:01:28.115Z,9.7
2022-10-17T20:06:30.422Z,15.2
2022-10-17T20:11:32.366Z,11.9
2022-10-17T20:16:34.363Z,17.2
2022-10-17T20:21:36.307Z,17.1
2022-10-17T20:26:40.260Z,16.3
2022-10-17T20:31:42.512Z,16.2
2022-10-17T20:36:44.456Z,13.9
2022-10-17T20:41:46.471Z,13.9
2022-10-17T20:47:02.891Z,12.9
2022-10-17T20:51:56.360Z,17.6
2022-10-17T20:57:03.867Z,18.8
2022-10-17T21:02:07.267Z,30.4
2022-10-17T21:07:09.494Z,17.5
2022-10-17T21:12:13.117Z,16.7
2022-10-17T21:17:13.457Z,17.3
2022-10-17T21:22:15.349Z,16.3
2022-10-17T21:27:17.246Z,16.1
2022-10-17T21:32:50.955Z,15.9
2022-10-17T21:37:24.065Z,15.2
2022-10-17T21:42:25.976Z,12.8
2022-10-17T21:47:28.547Z,12.1
2022-10-17T21:52:31.339Z,12.5
2022-10-17T21:57:34.182Z,11.4
2022-10-17T22:02:36.071Z,12.1
2022-10-17T22:07:38.147Z,12.5
2022-10-17T22:12:40.249Z,14
2022-10-17T22:17:42.254Z,13.7
2022-10-17T22:22:44.250Z,13
2022-10-17T22:27:46.229Z,12.7
2022-10-17T22:32:48.202Z,14.9
2022-10-17T22:37:50.184Z,16.2
2022-10-17T22:42:52.391Z,16.3
2022-10-17T22:47:54.719Z,16.5
2022-10-17T22:52:56.653Z,14.2
2022-10-17T22:57:58.900Z,16.8
2022-10-17T23:03:01.014Z,18
2022-10-17T23:08:03.078Z,17.3
2022-10-17T23:13:05.239Z,16.4
2022-10-17T23:18:07.143Z,15.3
2022-10-17T23:23:09.076Z,16.1
2022-10-17T23:28:11.172Z,17
2022-10-17T23:33:13.198Z,16.5
2022-10-17T23:38:15.146Z,16
2022-10-17T23:43:17.374Z,16.5
2022-10-17T23:48:19.817Z,15.9
2022-10-17T23:53:21.841Z,16.5
2022-10-17T23:58:23.918Z,15.4
